createdAt,value
2018-04-02T00:00:56.330Z,22.10
2018-04-02T00:01:56.326Z,20.50
2018-04-02T00:02:56.310Z,22.20
2018-04-02T00:03:56.293Z,21.10
2018-04-02T00:05:17.287Z,20.90
2018-04-02T00:05:56.277Z,20.70
2018-04-02T00:06:56.266Z,21.20
2018-04-02T00:07:56.260Z,21.20
2018-04-02T00:08:56.255Z,21.60
2018-04-02T00:09:56.244Z,20.90
2018-04-02T00:11:17.231Z,20.30
2018-04-02T00:11:56.221Z,21.60
2018-04-02T00:12:56.207Z,22.00
2018-04-02T00:13:56.204Z,22.50
2018-04-02T00:14:56.188Z,21.90
2018-04-02T00:15:56.179Z,23.10
2018-04-02T00:17:17.176Z,21.40
2018-04-02T00:17:56.163Z,23.20
2018-04-02T00:18:56.149Z,23.10
2018-04-02T00:19:56.143Z,22.90
2018-04-02T00:20:56.129Z,22.00
2018-04-02T00:21:56.123Z,22.20
2018-04-02T00:23:17.121Z,21.70
2018-04-02T00:23:56.111Z,21.90
2018-04-02T00:24:56.092Z,22.70
2018-04-02T00:25:56.085Z,23.30
2018-04-02T00:26:56.068Z,22.90
2018-04-02T00:27:56.058Z,22.80
2018-04-02T00:29:17.054Z,23.20
2018-04-02T00:29:56.040Z,22.40
2018-04-02T00:30:56.030Z,22.00
2018-04-02T00:31:56.026Z,22.30
2018-04-02T00:32:56.021Z,22.40
2018-04-02T00:33:55.999Z,22.40
2018-04-02T00:35:17.007Z,22.80
2018-04-02T00:35:55.983Z,23.80
2018-04-02T00:36:55.986Z,22.60
2018-04-02T00:37:55.966Z,24.60
2018-04-02T00:38:55.953Z,23.30
2018-04-02T00:39:55.940Z,24.10
2018-04-02T00:41:16.934Z,24.40
2018-04-02T00:41:55.928Z,23.90
2018-04-02T00:42:55.906Z,25.30
2018-04-02T00:43:55.904Z,25.60
2018-04-02T00:44:55.906Z,24.20
2018-04-02T00:45:55.886Z,24.00
2018-04-02T00:47:16.877Z,23.90
2018-04-02T00:47:55.868Z,23.70
2018-04-02T00:48:55.861Z,25.00
2018-04-02T00:49:55.843Z,23.40
2018-04-02T00:50:55.857Z,24.40
2018-04-02T00:51:55.829Z,21.90
2018-04-02T00:53:16.816Z,22.90
2018-04-02T00:53:55.801Z,23.80
2018-04-02T00:54:55.843Z,24.80
2018-04-02T00:55:55.778Z,22.10
2018-04-02T00:56:55.781Z,22.10
2018-04-02T00:57:55.764Z,21.80
2018-04-02T00:59:16.762Z,22.30
2018-04-02T00:59:55.738Z,22.70
2018-04-02T01:00:55.740Z,21.80
2018-04-02T01:01:55.726Z,23.70
2018-04-02T01:02:55.711Z,22.40
2018-04-02T01:03:55.700Z,22.60
2018-04-02T01:05:16.731Z,22.90
2018-04-02T01:05:55.684Z,21.50
2018-04-02T01:06:55.670Z,22.10
2018-04-02T01:07:55.669Z,21.50
2018-04-02T01:08:55.653Z,21.80
2018-04-02T01:09:55.644Z,21.70
2018-04-02T01:11:16.637Z,21.30
2018-04-02T01:11:55.621Z,22.40
2018-04-02T01:12:55.610Z,22.30
2018-04-02T01:13:55.605Z,21.70
2018-04-02T01:14:55.594Z,22.70
2018-04-02T01:15:55.590Z,22.00
2018-04-02T01:17:16.596Z,22.00
2018-04-02T01:17:55.564Z,21.20
2018-04-02T01:18:55.556Z,21.70
2018-04-02T01:19:55.539Z,21.80
2018-04-02T01:20:55.530Z,23.10
2018-04-02T01:21:55.524Z,21.70
2018-04-02T01:23:16.523Z,21.70
2018-04-02T01:23:55.514Z,23.20
2018-04-02T01:24:55.498Z,21.90
2018-04-02T01:25:55.476Z,23.10
2018-04-02T01:26:55.471Z,23.40
2018-04-02T01:27:55.462Z,21.90
2018-04-02T01:29:16.458Z,24.10
2018-04-02T01:29:55.446Z,22.60
2018-04-02T01:30:55.439Z,21.40
2018-04-02T01:31:55.426Z,22.90
2018-04-02T01:32:55.418Z,22.70
2018-04-02T01:33:55.406Z,21.60
2018-04-02T01:35:16.398Z,23.40
2018-04-02T01:35:55.383Z,23.60
2018-04-02T01:36:55.387Z,22.80
2018-04-02T01:37:55.357Z,23.50
2018-04-02T01:38:55.354Z,23.40
2018-04-02T01:39:55.344Z,24.10
2018-04-02T01:41:16.343Z,23.80
2018-04-02T01:41:55.320Z,24.00
2018-04-02T01:42:55.313Z,23.00
2018-04-02T01:43:55.303Z,23.60
2018-04-02T01:44:55.289Z,22.50
2018-04-02T01:45:55.288Z,24.40
2018-04-02T01:47:16.277Z,23.30
2018-04-02T01:47:55.263Z,24.30
2018-04-02T01:48:55.252Z,23.90
2018-04-02T01:49:55.245Z,23.50
2018-04-02T01:50:55.235Z,23.40
2018-04-02T01:51:55.225Z,23.20
2018-04-02T01:53:16.214Z,24.30
2018-04-02T01:53:55.204Z,24.40
2018-04-02T01:54:55.193Z,24.00
2018-04-02T01:55:55.177Z,24.00
2018-04-02T01:56:55.199Z,24.70
2018-04-02T01:57:55.155Z,24.50
2018-04-02T01:59:16.161Z,24.70
2018-04-02T01:59:55.145Z,25.50
2018-04-02T02:00:55.128Z,26.10
2018-04-02T02:01:55.116Z,26.30
2018-04-02T02:02:55.123Z,26.90
2018-04-02T02:03:55.116Z,25.40
2018-04-02T02:05:16.089Z,25.30
2018-04-02T02:05:55.085Z,26.20
2018-04-02T02:06:55.065Z,24.10
2018-04-02T02:07:55.097Z,25.00
2018-04-02T02:08:55.040Z,26.80
2018-04-02T02:09:55.038Z,25.70
2018-04-02T02:11:16.030Z,26.60
2018-04-02T02:11:55.012Z,26.40
2018-04-02T02:12:55.036Z,27.20
2018-04-02T02:13:54.998Z,25.80
2018-04-02T02:14:54.981Z,26.10
2018-04-02T02:15:54.976Z,27.40
2018-04-02T02:17:15.962Z,25.10
2018-04-02T02:17:54.953Z,27.00
2018-04-02T02:18:54.937Z,26.20
2018-04-02T02:19:54.928Z,25.00
2018-04-02T02:20:54.921Z,26.30
2018-04-02T02:21:54.913Z,25.00
2018-04-02T02:23:15.909Z,26.20
2018-04-02T02:23:54.889Z,26.20
2018-04-02T02:24:54.881Z,26.30
2018-04-02T02:25:54.866Z,27.00
2018-04-02T02:26:54.858Z,26.80
2018-04-02T02:27:54.850Z,27.60
2018-04-02T02:29:15.847Z,27.50
2018-04-02T02:29:54.828Z,28.30
2018-04-02T02:30:54.819Z,27.90
2018-04-02T02:31:54.805Z,26.90
2018-04-02T02:32:54.794Z,27.40
2018-04-02T02:33:54.791Z,26.40
2018-04-02T02:35:15.785Z,27.00
2018-04-02T02:35:54.774Z,27.80
2018-04-02T02:36:54.753Z,28.00
2018-04-02T02:37:54.746Z,28.10
2018-04-02T02:38:54.731Z,27.80
2018-04-02T02:39:54.729Z,28.00
2018-04-02T02:41:15.721Z,30.00
2018-04-02T02:41:54.710Z,28.40
2018-04-02T02:42:54.693Z,29.30
2018-04-02T02:43:54.684Z,27.80
2018-04-02T02:44:54.673Z,30.00
2018-04-02T02:45:54.663Z,29.00
2018-04-02T02:47:15.664Z,30.20
2018-04-02T02:47:54.641Z,30.10
2018-04-02T02:48:54.630Z,30.60
2018-04-02T02:49:54.618Z,30.00
2018-04-02T02:50:54.606Z,31.60
2018-04-02T02:51:54.593Z,30.70
2018-04-02T02:53:15.602Z,29.50
2018-04-02T02:53:54.577Z,30.70
2018-04-02T02:54:54.566Z,31.40
2018-04-02T02:55:54.559Z,30.00
2018-04-02T02:56:54.550Z,29.70
2018-04-02T02:57:54.539Z,29.50
2018-04-02T02:59:15.528Z,30.80
2018-04-02T02:59:54.516Z,31.40
2018-04-02T03:00:54.501Z,31.80
2018-04-02T03:01:54.494Z,30.10
2018-04-02T03:02:54.480Z,30.40
2018-04-02T03:03:54.473Z,31.00
2018-04-02T03:05:15.467Z,30.50
2018-04-02T03:05:54.455Z,30.20
2018-04-02T03:06:54.445Z,32.80
2018-04-02T03:07:54.439Z,31.40
2018-04-02T03:08:54.414Z,32.00
2018-04-02T03:09:54.409Z,31.70
2018-04-02T03:11:15.411Z,32.20
2018-04-02T03:11:54.399Z,33.80
2018-04-02T03:12:54.378Z,32.90
2018-04-02T03:13:54.408Z,33.20
2018-04-02T03:14:54.347Z,32.70
2018-04-02T03:15:54.343Z,31.80
2018-04-02T03:17:15.336Z,32.90
2018-04-02T03:17:54.316Z,34.00
2018-04-02T03:18:54.316Z,33.70
2018-04-02T03:19:54.378Z,33.90
2018-04-02T03:20:54.290Z,33.30
2018-04-02T03:21:54.294Z,31.10
2018-04-02T03:23:15.280Z,32.50
2018-04-02T03:23:54.261Z,33.40
2018-04-02T03:24:54.251Z,34.60
2018-04-02T03:25:54.247Z,33.60
2018-04-02T03:26:54.222Z,33.50
2018-04-02T03:27:54.208Z,35.10
2018-04-02T03:29:15.221Z,35.50
2018-04-02T03:29:54.199Z,34.30
2018-04-02T03:30:54.181Z,33.40
2018-04-02T03:31:54.183Z,34.10
2018-04-02T03:32:54.158Z,34.20
2018-04-02T03:33:54.152Z,35.00
2018-04-02T03:35:15.143Z,34.20
2018-04-02T03:35:54.147Z,36.40
2018-04-02T03:36:54.116Z,34.10
2018-04-02T03:37:54.108Z,36.70
2018-04-02T03:38:54.104Z,34.90
2018-04-02T03:39:54.083Z,34.90
2018-04-02T03:41:15.085Z,35.10
2018-04-02T03:41:54.066Z,35.60
2018-04-02T03:42:54.053Z,35.20
2018-04-02T03:43:54.048Z,36.40
2018-04-02T03:44:54.036Z,36.70
2018-04-02T03:45:54.021Z,37.30
2018-04-02T03:47:15.010Z,37.00
2018-04-02T03:47:53.996Z,37.00
2018-04-02T03:48:53.993Z,37.40
2018-04-02T03:49:53.985Z,38.30
2018-04-02T03:50:53.972Z,38.40
2018-04-02T03:51:53.956Z,38.80
2018-04-02T03:53:14.946Z,39.10
2018-04-02T03:53:53.929Z,37.70
2018-04-02T03:54:53.931Z,40.40
2018-04-02T03:55:53.910Z,38.00
2018-04-02T03:56:53.905Z,39.70
2018-04-02T03:57:53.990Z,39.30
2018-04-02T03:59:14.890Z,36.30
2018-04-02T03:59:53.886Z,37.60
2018-04-02T04:00:53.858Z,37.80
2018-04-02T04:01:53.847Z,38.60
2018-04-02T04:02:53.848Z,39.90
2018-04-02T04:03:53.826Z,39.80
2018-04-02T04:05:14.820Z,39.30
2018-04-02T04:05:53.819Z,41.10
2018-04-02T04:06:53.787Z,43.40
2018-04-02T04:07:53.783Z,41.60
2018-04-02T04:08:53.782Z,41.70
2018-04-02T04:09:53.758Z,41.40
2018-04-02T04:11:14.752Z,40.80
2018-04-02T04:11:53.740Z,41.90
2018-04-02T04:12:53.732Z,42.30
2018-04-02T04:13:53.716Z,42.10
2018-04-02T04:14:53.708Z,41.40
2018-04-02T04:15:53.698Z,40.10
2018-04-02T04:17:14.696Z,39.90
2018-04-02T04:17:53.678Z,38.60
2018-04-02T04:18:53.661Z,40.40
2018-04-02T04:19:53.657Z,39.80
2018-04-02T04:20:53.649Z,39.10
2018-04-02T04:21:53.638Z,38.80
2018-04-02T04:23:14.624Z,40.00
2018-04-02T04:23:53.642Z,40.90
2018-04-02T04:24:53.600Z,41.60
2018-04-02T04:25:53.586Z,38.50
2018-04-02T04:26:53.579Z,38.70
2018-04-02T04:27:53.566Z,38.10
2018-04-02T04:29:14.559Z,40.00
2018-04-02T04:29:53.541Z,38.70
2018-04-02T04:30:53.534Z,39.10
2018-04-02T04:31:53.520Z,40.00
2018-04-02T04:32:53.526Z,39.30
2018-04-02T04:33:53.496Z,38.50
2018-04-02T04:35:14.497Z,39.20
2018-04-02T04:35:53.484Z,40.50
2018-04-02T04:36:53.467Z,37.40
2018-04-02T04:37:53.482Z,38.00
2018-04-02T04:38:53.453Z,38.60
2018-04-02T04:39:53.440Z,37.80
2018-04-02T04:41:14.655Z,38.70
2018-04-02T04:41:53.412Z,39.10
2018-04-02T04:42:53.400Z,38.40
2018-04-02T04:43:53.401Z,36.90
2018-04-02T04:44:53.485Z,38.00
2018-04-02T04:45:53.374Z,38.00
2018-04-02T04:47:14.422Z,39.00
2018-04-02T04:47:53.363Z,40.20
2018-04-02T04:48:53.349Z,40.10
2018-04-02T04:49:53.336Z,39.10
2018-04-02T04:50:53.341Z,39.40
2018-04-02T04:51:53.312Z,38.80
2018-04-02T04:53:14.302Z,39.50
2018-04-02T04:53:53.282Z,39.50
2018-04-02T04:54:53.276Z,38.40
2018-04-02T04:55:53.272Z,38.40
2018-04-02T04:56:53.261Z,38.80
2018-04-02T04:57:53.241Z,40.00
2018-04-02T04:59:14.252Z,38.80
2018-04-02T04:59:53.224Z,37.90
2018-04-02T05:00:53.212Z,38.80
2018-04-02T05:01:53.209Z,36.90
2018-04-02T05:02:53.200Z,36.70
2018-04-02T05:03:53.192Z,36.70
2018-04-02T05:05:14.176Z,36.30
2018-04-02T05:05:53.162Z,37.50
2018-04-02T05:06:53.150Z,35.90
2018-04-02T05:07:53.149Z,36.50
2018-04-02T05:08:53.127Z,35.70
2018-04-02T05:09:53.123Z,36.40
2018-04-02T05:11:14.127Z,34.50
2018-04-02T05:11:53.098Z,36.90
2018-04-02T05:12:53.716Z,35.10
2018-04-02T05:13:53.077Z,37.00
2018-04-02T05:14:53.073Z,38.00
2018-04-02T05:15:53.055Z,38.70
2018-04-02T05:17:14.060Z,38.80
2018-04-02T05:17:53.036Z,37.30
2018-04-02T05:18:53.029Z,37.70
2018-04-02T05:19:53.015Z,37.80
2018-04-02T05:20:53.000Z,37.30
2018-04-02T05:21:53.001Z,38.10
2018-04-02T05:23:13.986Z,37.70
2018-04-02T05:23:52.975Z,36.10
2018-04-02T05:24:52.964Z,37.50
2018-04-02T05:25:52.955Z,38.10
2018-04-02T05:26:52.998Z,37.90
2018-04-02T05:27:52.933Z,38.30
2018-04-02T05:29:13.943Z,37.60
2018-04-02T05:29:52.910Z,35.20
2018-04-02T05:30:52.952Z,37.10
2018-04-02T05:31:52.890Z,37.70
2018-04-02T05:32:52.879Z,37.20
2018-04-02T05:33:52.872Z,36.10
2018-04-02T05:35:13.871Z,37.60
2018-04-02T05:35:52.851Z,38.60
2018-04-02T05:36:52.839Z,38.40
2018-04-02T05:37:52.824Z,38.40
2018-04-02T05:38:52.823Z,36.10
2018-04-02T05:39:52.805Z,38.80
2018-04-02T05:41:14.029Z,37.90
2018-04-02T05:41:52.791Z,39.10
2018-04-02T05:42:52.779Z,37.50
2018-04-02T05:43:52.770Z,37.20
2018-04-02T05:44:52.753Z,39.30
2018-04-02T05:45:52.742Z,36.30
2018-04-02T05:47:13.735Z,37.80
2018-04-02T05:47:52.726Z,38.90
2018-04-02T05:48:52.718Z,41.20
2018-04-02T05:49:52.711Z,38.90
2018-04-02T05:50:52.694Z,39.80
2018-04-02T05:51:52.685Z,39.00
2018-04-02T05:53:13.676Z,37.70
2018-04-02T05:53:52.678Z,39.50
2018-04-02T05:54:52.654Z,37.80
2018-04-02T05:55:52.639Z,38.10
2018-04-02T05:56:52.634Z,36.20
2018-04-02T05:57:52.617Z,36.90
2018-04-02T05:59:13.662Z,37.70
2018-04-02T05:59:52.600Z,37.20
2018-04-02T06:00:52.592Z,35.10
2018-04-02T06:01:52.581Z,34.60
2018-04-02T06:02:52.575Z,36.20
2018-04-02T06:03:52.555Z,35.20
2018-04-02T06:05:13.581Z,38.90
2018-04-02T06:05:52.545Z,35.50
2018-04-02T06:06:52.528Z,36.20
2018-04-02T06:07:52.519Z,36.70
2018-04-02T06:08:52.509Z,37.00
2018-04-02T06:09:52.505Z,41.80
2018-04-02T06:11:13.505Z,36.80
2018-04-02T06:11:52.480Z,34.80
2018-04-02T06:12:52.468Z,35.70
2018-04-02T06:13:52.454Z,40.10
2018-04-02T06:14:52.450Z,37.40
2018-04-02T06:15:52.431Z,35.40
2018-04-02T06:17:13.434Z,33.20
2018-04-02T06:17:52.417Z,33.00
2018-04-02T06:18:52.403Z,33.40
2018-04-02T06:19:52.417Z,34.10
2018-04-02T06:20:52.389Z,32.90
2018-04-02T06:21:52.400Z,32.90
2018-04-02T06:23:13.378Z,31.50
2018-04-02T06:23:52.355Z,32.40
2018-04-02T06:24:52.347Z,33.40
2018-04-02T06:25:52.354Z,31.70
2018-04-02T06:26:52.322Z,31.40
2018-04-02T06:27:52.315Z,32.10
2018-04-02T06:29:13.319Z,32.20
2018-04-02T06:29:52.292Z,32.20
2018-04-02T06:30:52.280Z,32.60
2018-04-02T06:31:52.290Z,31.40
2018-04-02T06:32:52.262Z,32.40
2018-04-02T06:33:52.251Z,31.80
2018-04-02T06:35:13.247Z,30.40
2018-04-02T06:35:52.231Z,29.90
2018-04-02T06:36:52.224Z,31.80
2018-04-02T06:37:52.213Z,31.00
2018-04-02T06:38:52.207Z,30.10
2018-04-02T06:39:52.191Z,30.40
2018-04-02T06:41:13.190Z,27.90
2018-04-02T06:41:52.207Z,28.30
2018-04-02T06:42:52.161Z,28.50
2018-04-02T06:43:52.158Z,29.10
2018-04-02T06:44:52.141Z,27.60
2018-04-02T06:45:52.138Z,29.70
2018-04-02T06:47:13.134Z,29.60
2018-04-02T06:47:52.143Z,29.00
2018-04-02T06:48:52.116Z,28.50
2018-04-02T06:49:52.095Z,28.30
2018-04-02T06:50:52.087Z,28.20
2018-04-02T06:51:52.073Z,28.20
2018-04-02T06:53:13.075Z,27.90
2018-04-02T06:53:52.058Z,27.80
2018-04-02T06:54:52.057Z,27.60
2018-04-02T06:55:52.043Z,27.00
2018-04-02T06:56:52.031Z,27.00
2018-04-02T06:57:52.021Z,27.20
2018-04-02T06:59:13.017Z,28.00
2018-04-02T06:59:52.006Z,27.90
2018-04-02T07:00:51.995Z,28.20
2018-04-02T07:01:51.977Z,27.50
2018-04-02T07:02:51.967Z,26.90
2018-04-02T07:03:51.964Z,27.90
2018-04-02T07:05:13.021Z,26.50
2018-04-02T07:05:51.939Z,26.90
2018-04-02T07:06:51.940Z,27.60
2018-04-02T07:07:51.923Z,26.70
2018-04-02T07:08:51.926Z,25.70
2018-04-02T07:09:51.904Z,26.50
2018-04-02T07:11:12.903Z,27.50
2018-04-02T07:11:51.890Z,25.30
2018-04-02T07:12:51.873Z,27.00
2018-04-02T07:13:51.875Z,26.30
2018-04-02T07:14:51.857Z,26.90
2018-04-02T07:15:51.845Z,27.20
2018-04-02T07:17:12.852Z,25.90
2018-04-02T07:17:51.855Z,24.70
2018-04-02T07:18:51.823Z,26.40
2018-04-02T07:19:51.818Z,25.30
2018-04-02T07:20:51.841Z,25.70
2018-04-02T07:21:51.805Z,23.70
2018-04-02T07:23:12.794Z,24.00
2018-04-02T07:23:51.774Z,23.60
2018-04-02T07:24:51.860Z,24.90
2018-04-02T07:25:51.758Z,24.60
2018-04-02T07:26:51.744Z,24.50
2018-04-02T07:27:51.738Z,23.00
2018-04-02T07:29:12.736Z,23.90
2018-04-02T07:29:51.728Z,25.10
2018-04-02T07:30:51.747Z,23.50
2018-04-02T07:31:51.709Z,23.90
2018-04-02T07:32:51.707Z,23.70
2018-04-02T07:33:51.689Z,25.00
2018-04-02T07:35:12.688Z,23.10
2018-04-02T07:35:51.671Z,23.30
2018-04-02T07:36:51.661Z,22.30
2018-04-02T07:37:51.652Z,22.90
2018-04-02T07:38:51.677Z,22.60
2018-04-02T07:39:51.640Z,21.10
2018-04-02T07:41:12.630Z,21.70
2018-04-02T07:41:51.617Z,20.80
2018-04-02T07:42:51.609Z,22.50
2018-04-02T07:43:51.601Z,22.40
2018-04-02T07:44:51.591Z,21.80
2018-04-02T07:45:51.628Z,19.80
2018-04-02T07:47:12.580Z,20.40
2018-04-02T07:47:51.568Z,20.80
2018-04-02T07:48:51.561Z,20.10
2018-04-02T07:49:51.551Z,20.60
2018-04-02T07:50:51.622Z,20.40
2018-04-02T07:51:51.535Z,20.40
2018-04-02T07:53:12.538Z,22.00
2018-04-02T07:53:51.519Z,21.40
2018-04-02T07:54:51.510Z,21.20
2018-04-02T07:55:51.500Z,20.10
2018-04-02T07:56:51.493Z,20.30
2018-04-02T07:57:51.482Z,21.40
2018-04-02T07:59:12.484Z,20.60
2018-04-02T07:59:51.467Z,20.90
2018-04-02T08:00:51.460Z,20.70
2018-04-02T08:01:51.453Z,21.00
2018-04-02T08:02:51.460Z,19.60
2018-04-02T08:03:51.432Z,20.10
2018-04-02T08:05:12.433Z,20.50
2018-04-02T08:05:51.419Z,20.60
2018-04-02T08:06:51.406Z,20.40
2018-04-02T08:07:51.404Z,19.40
2018-04-02T08:08:51.393Z,19.80
2018-04-02T08:09:51.381Z,20.50
2018-04-02T08:11:12.379Z,19.40
2018-04-02T08:11:51.431Z,19.30
2018-04-02T08:12:51.389Z,20.00
2018-04-02T08:13:51.407Z,20.00
2018-04-02T08:14:51.339Z,20.30
2018-04-02T08:15:51.366Z,19.20
2018-04-02T08:17:12.330Z,20.10
2018-04-02T08:17:51.356Z,19.90
2018-04-02T08:18:51.329Z,20.90
2018-04-02T08:19:51.299Z,20.10
2018-04-02T08:20:51.515Z,20.50
2018-04-02T08:21:51.287Z,19.40
2018-04-02T08:23:13.352Z,19.30
2018-04-02T08:23:51.273Z,19.60
2018-04-02T08:24:51.268Z,18.50
2018-04-02T08:25:51.259Z,18.60
2018-04-02T08:26:51.529Z,18.80
2018-04-02T08:27:52.092Z,17.40
2018-04-02T08:29:12.353Z,17.80
2018-04-02T08:29:51.236Z,17.90
2018-04-02T08:30:51.229Z,18.00
2018-04-02T08:31:51.252Z,18.50
2018-04-02T08:32:51.311Z,17.60
2018-04-02T08:33:51.189Z,17.20
2018-04-02T08:35:12.204Z,17.30
2018-04-02T08:35:51.247Z,17.00
2018-04-02T08:36:51.774Z,16.70
2018-04-02T08:37:51.159Z,16.70
2018-04-02T08:38:51.188Z,16.40
2018-04-02T08:39:51.155Z,16.30
2018-04-02T08:41:12.376Z,16.60
2018-04-02T08:41:51.274Z,16.90
2018-04-02T08:42:51.351Z,15.90
2018-04-02T08:43:51.118Z,14.70
2018-04-02T08:44:51.124Z,15.50
2018-04-02T08:45:51.126Z,15.50
2018-04-02T08:47:12.096Z,15.30
2018-04-02T08:47:51.191Z,15.00
2018-04-02T08:48:51.148Z,15.80
2018-04-02T08:49:51.115Z,16.20
2018-04-02T08:50:51.111Z,16.30
2018-04-02T08:51:51.122Z,16.30
2018-04-02T08:53:12.046Z,16.30
2018-04-02T08:53:51.600Z,16.60
2018-04-02T08:54:51.028Z,15.80
2018-04-02T08:55:51.089Z,15.70
2018-04-02T08:56:51.028Z,15.70
2018-04-02T08:57:51.794Z,15.60
2018-04-02T08:59:12.082Z,15.60
2018-04-02T08:59:51.030Z,15.30
2018-04-02T09:00:51.087Z,14.00
2018-04-02T09:01:50.999Z,14.20
2018-04-02T09:02:51.022Z,14.40
2018-04-02T09:03:50.998Z,14.40
2018-04-02T09:05:12.025Z,14.40
2018-04-02T09:05:50.998Z,13.80
2018-04-02T09:06:50.941Z,14.70
2018-04-02T09:07:50.940Z,14.60
2018-04-02T09:08:50.928Z,13.50
2018-04-02T09:09:50.913Z,12.80
2018-04-02T09:11:11.913Z,12.70
2018-04-02T09:11:50.897Z,12.80
2018-04-02T09:12:50.906Z,12.10
2018-04-02T09:13:50.890Z,12.70
2018-04-02T09:14:50.876Z,12.90
2018-04-02T09:15:50.876Z,12.50
2018-04-02T09:17:11.873Z,12.90
2018-04-02T09:17:50.861Z,12.70
2018-04-02T09:18:50.854Z,12.70
2018-04-02T09:19:50.854Z,12.80
2018-04-02T09:20:50.840Z,12.50
2018-04-02T09:21:50.834Z,12.50
2018-04-02T09:23:11.851Z,12.90
2018-04-02T09:23:50.824Z,12.40
2018-04-02T09:24:50.868Z,12.70
2018-04-02T09:25:50.810Z,12.10
2018-04-02T09:26:50.810Z,12.00
2018-04-02T09:27:50.799Z,12.20
2018-04-02T09:29:11.790Z,12.10
2018-04-02T09:29:50.780Z,12.00
2018-04-02T09:30:50.772Z,12.60
2018-04-02T09:31:50.782Z,11.80
2018-04-02T09:32:50.758Z,11.70
2018-04-02T09:33:50.758Z,12.30
2018-04-02T09:35:11.757Z,12.70
2018-04-02T09:35:50.741Z,12.10
2018-04-02T09:36:50.740Z,12.30
2018-04-02T09:37:50.727Z,11.60
2018-04-02T09:38:50.722Z,11.30
2018-04-02T09:39:50.714Z,12.00
2018-04-02T09:41:11.718Z,12.20
2018-04-02T09:41:50.948Z,11.90
2018-04-02T09:42:50.698Z,11.80
2018-04-02T09:43:50.697Z,11.50
2018-04-02T09:44:50.689Z,11.90
2018-04-02T09:45:50.676Z,11.50
2018-04-02T09:47:11.685Z,11.90
2018-04-02T09:47:50.670Z,11.20
2018-04-02T09:48:50.661Z,11.50
2018-04-02T09:49:50.653Z,11.50
2018-04-02T09:50:50.654Z,11.30
2018-04-02T09:51:50.644Z,11.40
2018-04-02T09:53:11.640Z,11.40
2018-04-02T09:53:50.629Z,11.80
2018-04-02T09:54:50.627Z,11.90
2018-04-02T09:55:50.618Z,11.10
2018-04-02T09:56:50.684Z,10.50
2018-04-02T09:57:50.625Z,10.90
2018-04-02T09:59:11.643Z,10.90
2018-04-02T09:59:50.602Z,9.80
2018-04-02T10:00:50.650Z,10.10
2018-04-02T10:01:50.583Z,10.00
2018-04-02T10:02:50.582Z,9.40
2018-04-02T10:03:50.575Z,9.90
2018-04-02T10:05:11.710Z,9.60
2018-04-02T10:05:50.570Z,9.80
2018-04-02T10:06:50.570Z,10.00
2018-04-02T10:07:50.627Z,9.60
2018-04-02T10:08:50.538Z,10.10
2018-04-02T10:09:50.589Z,9.20
2018-04-02T10:11:11.525Z,9.60
2018-04-02T10:11:50.515Z,10.10
2018-04-02T10:12:50.517Z,9.90
2018-04-02T10:13:50.502Z,9.30
2018-04-02T10:14:50.500Z,9.80
2018-04-02T10:15:50.489Z,9.70
2018-04-02T10:17:11.494Z,9.10
2018-04-02T10:17:50.474Z,9.40
2018-04-02T10:18:50.504Z,8.30
2018-04-02T10:19:50.467Z,7.90
2018-04-02T10:20:50.457Z,7.90
2018-04-02T10:21:50.451Z,7.60
2018-04-02T10:23:11.568Z,8.10
2018-04-02T10:23:50.488Z,7.80
2018-04-02T10:24:50.440Z,7.70
2018-04-02T10:25:50.424Z,8.30
2018-04-02T10:26:50.422Z,8.20
2018-04-02T10:27:50.418Z,8.00
2018-04-02T10:29:11.418Z,8.20
2018-04-02T10:29:50.442Z,8.00
2018-04-02T10:30:50.393Z,8.30
2018-04-02T10:31:50.386Z,8.10
2018-04-02T10:32:50.392Z,8.00
2018-04-02T10:33:50.378Z,8.30
2018-04-02T10:35:11.382Z,8.00
2018-04-02T10:35:50.376Z,8.10
2018-04-02T10:36:50.359Z,8.10
2018-04-02T10:37:50.359Z,8.30
2018-04-02T10:38:50.345Z,7.20
2018-04-02T10:39:50.338Z,7.90
2018-04-02T10:41:11.354Z,7.90
2018-04-02T10:41:50.326Z,7.60
2018-04-02T10:42:50.318Z,7.40
2018-04-02T10:43:50.316Z,7.90
2018-04-02T10:44:50.314Z,7.90
2018-04-02T10:45:50.302Z,7.60
2018-04-02T10:47:11.299Z,8.20
2018-04-02T10:47:50.287Z,7.40
2018-04-02T10:48:50.288Z,7.90
2018-04-02T10:49:50.278Z,7.50
2018-04-02T10:50:50.272Z,6.80
2018-04-02T10:51:50.268Z,7.70
2018-04-02T10:53:11.261Z,7.50
2018-04-02T10:53:50.258Z,7.40
2018-04-02T10:54:50.249Z,7.50
2018-04-02T10:55:50.266Z,7.20
2018-04-02T10:56:50.230Z,7.20
2018-04-02T10:57:50.247Z,7.10
2018-04-02T10:59:11.225Z,7.30
2018-04-02T10:59:50.245Z,7.10
2018-04-02T11:00:50.224Z,7.30
2018-04-02T11:01:50.205Z,6.90
2018-04-02T11:02:50.192Z,7.30
2018-04-02T11:03:50.189Z,7.40
2018-04-02T11:05:11.191Z,7.70
2018-04-02T11:05:50.183Z,7.20
2018-04-02T11:06:50.168Z,7.10
2018-04-02T11:07:50.166Z,6.40
2018-04-02T11:08:50.155Z,7.10
2018-04-02T11:09:50.162Z,7.50
2018-04-02T11:11:11.157Z,7.10
2018-04-02T11:11:50.143Z,7.50
2018-04-02T11:12:50.136Z,7.10
2018-04-02T11:13:50.138Z,7.30
2018-04-02T11:14:50.121Z,7.30
2018-04-02T11:15:50.155Z,6.80
2018-04-02T11:17:11.124Z,6.60
2018-04-02T11:17:50.109Z,6.60
2018-04-02T11:18:50.103Z,6.50
2018-04-02T11:19:50.095Z,7.60
2018-04-02T11:20:50.092Z,6.90
2018-04-02T11:21:50.078Z,6.60
2018-04-02T11:23:11.083Z,7.20
2018-04-02T11:23:50.074Z,7.10
2018-04-02T11:24:50.070Z,7.60
2018-04-02T11:25:50.059Z,6.80
2018-04-02T11:26:50.065Z,6.80
2018-04-02T11:27:50.056Z,6.70
2018-04-02T11:29:11.054Z,7.00
2018-04-02T11:29:50.044Z,6.90
2018-04-02T11:30:50.032Z,6.80
2018-04-02T11:31:50.025Z,6.50
2018-04-02T11:32:50.046Z,6.00
2018-04-02T11:33:50.028Z,6.70
2018-04-02T11:35:11.017Z,7.20
2018-04-02T11:35:50.011Z,7.00
2018-04-02T11:36:49.996Z,7.10
2018-04-02T11:37:49.990Z,7.10
2018-04-02T11:38:49.997Z,7.30
2018-04-02T11:39:49.978Z,7.00
2018-04-02T11:41:10.976Z,7.20
2018-04-02T11:41:49.961Z,7.30
2018-04-02T11:42:49.985Z,6.90
2018-04-02T11:43:49.962Z,7.10
2018-04-02T11:44:49.952Z,7.00
2018-04-02T11:45:49.949Z,7.00
2018-04-02T11:47:10.959Z,7.00
2018-04-02T11:47:49.940Z,7.10
2018-04-02T11:48:49.939Z,6.80
2018-04-02T11:49:49.928Z,6.50
2018-04-02T11:50:49.922Z,6.90
2018-04-02T11:51:49.910Z,6.80
2018-04-02T11:53:10.916Z,6.10
2018-04-02T11:53:49.909Z,6.60
2018-04-02T11:54:49.889Z,6.50
2018-04-02T11:55:49.888Z,7.00
2018-04-02T11:56:49.887Z,6.90
2018-04-02T11:57:49.903Z,6.50
2018-04-02T11:59:10.882Z,6.70
2018-04-02T11:59:49.875Z,7.40
2018-04-02T12:00:49.868Z,6.90
2018-04-02T12:01:49.854Z,6.80
2018-04-02T12:02:49.846Z,6.90
2018-04-02T12:03:49.847Z,6.70
2018-04-02T12:05:10.849Z,6.30
2018-04-02T12:05:49.833Z,6.60
2018-04-02T12:06:49.832Z,6.30
2018-04-02T12:07:49.819Z,6.90
2018-04-02T12:08:49.825Z,6.70
2018-04-02T12:09:49.819Z,6.70
2018-04-02T12:11:10.824Z,6.80
2018-04-02T12:11:49.810Z,6.70
2018-04-02T12:12:49.802Z,6.70
2018-04-02T12:13:49.796Z,7.10
2018-04-02T12:14:49.834Z,6.80
2018-04-02T12:15:49.785Z,6.70
2018-04-02T12:17:10.784Z,6.60
2018-04-02T12:17:49.772Z,6.30
2018-04-02T12:18:49.772Z,6.50
2018-04-02T12:19:49.769Z,6.30
2018-04-02T12:20:49.774Z,6.70
2018-04-02T12:21:49.749Z,6.60
2018-04-02T12:23:10.755Z,6.70
2018-04-02T12:23:49.746Z,6.60
2018-04-02T12:24:49.745Z,6.40
2018-04-02T12:25:49.732Z,6.20
2018-04-02T12:26:49.738Z,6.40
2018-04-02T12:27:49.737Z,6.30
2018-04-02T12:29:10.740Z,6.50
2018-04-02T12:29:49.717Z,6.80
2018-04-02T12:30:49.724Z,6.60
2018-04-02T12:31:49.710Z,6.40
2018-04-02T12:32:49.708Z,6.50
2018-04-02T12:33:49.707Z,6.50
2018-04-02T12:35:10.705Z,6.30
2018-04-02T12:35:49.695Z,6.30
2018-04-02T12:36:49.685Z,6.80
2018-04-02T12:37:49.686Z,6.50
2018-04-02T12:38:49.681Z,6.70
2018-04-02T12:39:49.677Z,7.00
2018-04-02T12:41:10.684Z,6.30
2018-04-02T12:41:49.664Z,6.80
2018-04-02T12:42:49.659Z,6.40
2018-04-02T12:43:49.659Z,6.50
2018-04-02T12:44:49.665Z,6.30
2018-04-02T12:45:49.652Z,5.80
2018-04-02T12:47:10.657Z,6.30
2018-04-02T12:47:49.664Z,6.50
2018-04-02T12:48:49.641Z,6.40
2018-04-02T12:49:49.639Z,6.40
2018-04-02T12:50:49.638Z,6.70
2018-04-02T12:51:49.637Z,6.40
2018-04-02T12:53:10.644Z,6.50
2018-04-02T12:53:49.622Z,6.40
2018-04-02T12:54:49.610Z,6.50
2018-04-02T12:55:49.608Z,6.40
2018-04-02T12:56:49.611Z,6.20
2018-04-02T12:57:49.599Z,6.40
2018-04-02T12:59:10.611Z,6.80